Time;durP1;ratioP1;P1;durP2;ratioP2;P2;SDS_P1;SDS_P2;PMS_P1;PMS_P2;Temp;Humidity;BMP_temperature;BMP_pressure;BME280_temperature;BME280_humidity;BME280_pressure;Samples;Min_cycle;Max_cycle;Signal;HPM_P1;HPM_P2
2023/07/05 00:01:30;;;;;;;;;8.67;8.33;;;;;16.88;75.41;100405.63;5097939;27;46016;-83
2023/07/05 00:03:56;;;;;;;;;9.00;7.00;;;;;16.86;75.47;100408.47;5098629;27;45308;-82
2023/07/05 00:06:22;;;;;;;;;13.33;9.00;;;;;16.55;75.56;100366.38;5096577;27;45456;-82
2023/07/05 00:08:47;;;;;;;;;9.00;6.00;;;;;16.77;75.76;100411.91;5099093;27;45421;-81
2023/07/05 00:11:13;;;;;;;;;7.00;7.00;;;;;16.75;75.66;100419.25;5097853;27;46902;-82
2023/07/05 00:13:39;;;;;;;;;9.00;8.33;;;;;16.72;75.53;100428.44;5098419;27;45279;-81
2023/07/05 00:16:05;;;;;;;;;10.00;10.00;;;;;16.66;76.08;100423.53;5096833;27;45450;-82
2023/07/05 00:18:30;;;;;;;;;11.67;10.00;;;;;16.65;76.13;100426.34;5097955;27;45330;-82
2023/07/05 00:21:01;;;;;;;;;11.00;9.33;;;;;16.27;76.03;100368.66;5097448;27;46226;-81
2023/07/05 00:23:27;;;;;;;;;5.33;5.33;;;;;16.55;75.20;100423.59;5097603;27;45400;-83
2023/07/05 00:25:52;;;;;;;;;17.00;14.00;;;;;16.40;76.02;100422.16;5097694;27;45302;-80
2023/07/05 00:28:18;;;;;;;;;11.00;11.00;;;;;16.41;76.07;100424.75;5096805;27;45207;-81
2023/07/05 00:30:45;;;;;;;;;8.67;8.67;;;;;16.37;75.21;100425.97;5096904;27;54055;-80
2023/07/05 00:33:11;;;;;;;;;5.67;5.67;;;;;16.28;75.23;100423.22;5096005;27;45730;-80
2023/07/05 00:35:36;;;;;;;;;11.33;10.00;;;;;16.34;75.42;100431.59;5096969;27;52566;-82
2023/07/05 00:38:02;;;;;;;;;15.67;10.00;;;;;16.38;75.68;100446.44;5097405;27;45599;-81
2023/07/05 00:40:27;;;;;;;;;2.67;2.67;;;;;16.30;75.13;100431.97;5095736;27;47203;-82
2023/07/05 00:42:53;;;;;;;;;11.00;9.33;;;;;16.34;75.21;100445.00;5097024;27;45341;-82
2023/07/05 00:45:18;;;;;;;;;11.00;10.00;;;;;16.33;74.77;100446.00;5097397;27;45330;-81
2023/07/05 00:47:45;;;;;;;;;9.00;8.00;;;;;16.26;74.17;100436.72;5097350;27;45330;-81
2023/07/05 00:50:22;;;;;;;;;7.00;6.00;;;;;16.22;73.83;100443.31;5095983;27;46284;-81
2023/07/05 00:52:49;;;;;;;;;9.33;8.00;;;;;16.20;73.86;100439.94;5097107;27;45211;-81
2023/07/05 00:55:17;;;;;;;;;8.67;8.33;;;;;16.17;72.85;100451.75;5096992;27;45380;-81
2023/07/05 00:57:44;;;;;;;;;10.67;10.33;;;;;16.33;72.42;100451.34;5097121;27;45513;-80
2023/07/05 01:00:18;;;;;;;;;14.00;8.00;;;;;16.32;72.16;100468.44;5096759;27;45522;-78
2023/07/05 01:02:49;;;;;;;;;11.33;8.33;;;;;16.18;72.87;100436.53;5096527;27;45536;-80
2023/07/05 01:05:15;;;;;;;;;7.00;7.00;;;;;16.37;71.91;100470.72;5095728;27;45511;-81
2023/07/05 01:07:40;;;;;;;;;10.00;8.00;;;;;16.35;71.40;100465.50;5096004;27;45709;-80
2023/07/05 01:10:15;;;;;;;;;6.00;4.33;;;;;16.29;71.45;100482.13;5096304;27;45864;-79
2023/07/05 01:12:49;;;;;;;;;10.00;7.00;;;;;16.19;72.47;100471.28;5096645;27;45357;-80
2023/07/05 01:15:19;;;;;;;;;7.00;5.67;;;;;16.22;71.16;100491.63;5095466;27;45469;-81
2023/07/05 01:18:12;;;;;;;;;10.00;8.00;;;;;16.19;71.96;100489.19;5096743;27;45493;-81
2023/07/05 01:20:47;;;;;;;;;9.33;8.00;;;;;16.08;71.71;100481.16;5096143;27;45530;-81
2023/07/05 01:23:41;;;;;;;;;7.00;6.00;;;;;16.10;71.45;100484.56;5096442;27;45354;-81
2023/07/05 01:26:35;;;;;;;;;10.00;8.00;;;;;16.05;71.69;100481.41;5076117;27;45412;-80
2023/07/05 01:29:34;;;;;;;;;7.33;7.33;;;;;16.03;71.75;100483.38;5076632;27;45421;-81
2023/07/05 01:32:14;;;;;;;;;8.00;8.00;;;;;15.93;71.03;100476.06;5087651;27;46285;-80
2023/07/05 01:35:14;;;;;;;;;7.33;6.67;;;;;15.90;71.01;100473.63;5096202;27;45367;-79
2023/07/05 01:37:42;;;;;;;;;8.00;8.00;;;;;15.88;70.83;100470.19;5096466;27;45320;-80
2023/07/05 01:40:20;;;;;;;;;6.67;5.00;;;;;15.87;71.83;100489.94;5098810;27;45571;-80
2023/07/05 01:42:48;;;;;;;;;6.33;6.00;;;;;15.90;70.45;100495.09;5095260;27;46477;-81
2023/07/05 01:45:15;;;;;;;;;5.67;5.67;;;;;15.76;70.01;100470.34;5099002;27;45736;-81
2023/07/05 01:47:57;;;;;;;;;7.67;5.00;;;;;15.97;70.65;100506.16;5098692;27;45347;-81
2023/07/05 01:50:26;;;;;;;;;7.00;5.33;;;;;16.08;69.91;100521.41;5097821;27;45583;-81
2023/07/05 01:53:09;;;;;;;;;8.33;6.00;;;;;15.96;69.93;100474.94;5098256;27;46096;-80
2023/07/05 01:55:55;;;;;;;;;4.00;4.00;;;;;16.15;68.42;100517.25;5098196;27;45300;-80
2023/07/05 01:58:28;;;;;;;;;7.00;4.00;;;;;16.03;67.34;100494.09;5091129;27;45382;-80
2023/07/05 02:00:55;;;;;;;;;4.00;4.00;;;;;16.22;66.54;100510.41;5098885;27;45395;-80
2023/07/05 02:03:24;;;;;;;;;4.00;2.67;;;;;16.17;67.83;100528.72;5099562;27;45401;-81
2023/07/05 02:05:50;;;;;;;;;3.67;3.67;;;;;16.12;67.28;100530.91;5099927;27;45447;-80
2023/07/05 02:08:16;;;;;;;;;5.33;5.33;;;;;16.07;67.04;100522.38;5099435;27;45329;-80
2023/07/05 02:10:42;;;;;;;;;5.33;3.67;;;;;16.03;67.68;100537.88;5099678;27;45390;-79
2023/07/05 02:13:10;;;;;;;;;7.00;4.00;;;;;15.92;67.67;100530.69;5099352;27;46606;-80
2023/07/05 02:15:38;;;;;;;;;5.33;5.00;;;;;15.80;66.28;100518.25;5098115;27;45176;-80
2023/07/05 02:18:05;;;;;;;;;6.33;4.00;;;;;15.83;66.98;100530.53;5099199;27;45402;-80
2023/07/05 02:20:30;;;;;;;;;2.67;2.67;;;;;15.78;67.63;100538.97;5099604;27;45350;-81
2023/07/05 02:22:56;;;;;;;;;4.67;4.33;;;;;15.30;66.80;100468.56;5097467;27;46867;-80
2023/07/05 02:25:21;;;;;;;;;5.00;5.00;;;;;15.59;67.20;100530.59;5099702;27;45424;-81
2023/07/05 02:27:47;;;;;;;;;3.00;3.00;;;;;15.56;67.12;100553.16;5099479;27;45361;-81
2023/07/05 02:30:13;;;;;;;;;11.00;5.00;;;;;15.49;67.82;100549.22;5097726;27;47285;-81
2023/07/05 02:32:39;;;;;;;;;5.33;5.00;;;;;15.40;68.04;100541.91;5088715;27;45349;-81
2023/07/05 02:35:05;;;;;;;;;4.33;4.00;;;;;15.44;67.58;100548.72;5078374;27;45438;-80
2023/07/05 02:37:32;;;;;;;;;2.67;2.67;;;;;15.53;68.43;100568.63;5078712;27;45420;-81
2023/07/05 02:39:58;;;;;;;;;2.67;2.67;;;;;15.44;68.15;100553.22;5078795;27;45469;-81
2023/07/05 02:42:24;;;;;;;;;3.67;3.67;;;;;15.49;68.59;100569.81;5078605;28;45410;-80
2023/07/05 02:44:51;;;;;;;;;3.33;3.33;;;;;15.45;68.64;100563.84;5078383;27;45476;-80
2023/07/05 02:47:18;;;;;;;;;6.00;4.00;;;;;15.44;68.50;100577.34;5078463;27;45452;-81
2023/07/05 02:49:44;;;;;;;;;1.00;1.00;;;;;15.37;68.74;100570.78;5078082;27;45425;-80
2023/07/05 02:52:09;;;;;;;;;3.67;3.67;;;;;15.43;68.96;100589.03;5084774;27;45436;-80
2023/07/05 02:54:35;;;;;;;;;4.00;3.00;;;;;15.37;68.85;100586.84;5098724;27;45302;-80
2023/07/05 02:57:01;;;;;;;;;5.00;4.00;;;;;15.30;69.09;100587.28;5098722;27;45277;-80
2023/07/05 02:59:26;;;;;;;;;3.33;3.33;;;;;15.31;68.97;100594.38;5098160;27;45255;-80
2023/07/05 03:01:52;;;;;;;;;4.00;2.00;;;;;15.21;68.94;100582.63;5097660;27;45536;-79
2023/07/05 03:04:17;;;;;;;;;3.33;3.33;;;;;15.18;68.99;100582.88;5097971;27;53991;-79
2023/07/05 03:06:42;;;;;;;;;6.00;2.33;;;;;15.23;69.70;100594.06;5097240;27;45837;-80
2023/07/05 03:09:08;;;;;;;;;4.00;3.00;;;;;15.19;69.20;100594.44;5098853;27;45333;-80
2023/07/05 03:11:33;;;;;;;;;2.33;1.33;;;;;15.10;69.82;100590.59;5098486;27;45357;-81
2023/07/05 03:13:58;;;;;;;;;2.00;2.00;;;;;14.99;69.38;100583.41;5098545;27;45326;-81
2023/07/05 03:16:24;;;;;;;;;1.67;1.67;;;;;14.99;69.64;100603.97;5099004;27;45319;-81
2023/07/05 03:18:49;;;;;;;;;3.00;3.00;;;;;14.89;69.84;100592.22;5098392;27;45321;-81
2023/07/05 03:21:15;;;;;;;;;2.00;1.67;;;;;14.93;69.84;100599.06;5098034;27;45570;-80
2023/07/05 03:23:40;;;;;;;;;3.67;2.00;;;;;14.75;69.57;100579.84;5097127;27;45311;-80
2023/07/05 03:26:09;;;;;;;;;5.33;2.00;;;;;14.90;70.07;100604.66;5098353;27;45406;-80
2023/07/05 03:28:36;;;;;;;;;2.00;2.00;;;;;14.83;69.49;100604.22;5098454;27;45416;-80
2023/07/05 03:31:13;;;;;;;;;3.00;2.00;;;;;14.80;70.01;100599.09;5098075;27;45625;-80
2023/07/05 03:33:40;;;;;;;;;2.00;2.00;;;;;14.86;69.44;100624.59;5098161;27;45737;-80
2023/07/05 03:36:15;;;;;;;;;3.00;1.67;;;;;14.62;69.51;100600.47;5098171;27;45385;-79
2023/07/05 03:38:41;;;;;;;;;3.00;2.00;;;;;14.74;69.45;100626.34;5098339;27;45527;-81
2023/07/05 03:41:11;;;;;;;;;2.00;2.00;;;;;14.68;69.25;100614.25;5096941;27;45958;-81
2023/07/05 03:43:37;;;;;;;;;1.00;1.00;;;;;14.66;69.34;100634.06;5098052;27;45230;-81
2023/07/05 03:46:05;;;;;;;;;2.00;2.00;;;;;14.73;69.65;100646.91;5098153;27;45366;-81
2023/07/05 03:48:35;;;;;;;;;2.33;2.00;;;;;14.67;69.67;100639.28;5096509;27;45411;-80
2023/07/05 03:51:01;;;;;;;;;1.00;1.00;;;;;14.63;69.72;100632.47;5096411;27;48413;-80
2023/07/05 03:53:27;;;;;;;;;2.00;2.00;;;;;14.61;69.34;100637.06;5097952;27;45263;-81
2023/07/05 03:55:53;;;;;;;;;3.00;1.67;;;;;14.69;69.46;100641.88;5096397;27;45282;-81
2023/07/05 03:58:19;;;;;;;;;1.00;1.00;;;;;14.53;68.83;100634.09;5081423;27;45353;-80
2023/07/05 04:00:45;;;;;;;;;1.67;1.00;;;;;14.57;69.06;100642.75;5079911;27;46104;-81
2023/07/05 04:03:12;;;;;;;;;4.00;2.67;;;;;14.40;69.83;100622.53;5095670;27;45441;-80
2023/07/05 04:05:37;;;;;;;;;3.00;1.00;;;;;14.50;69.40;100634.31;5096623;27;45454;-80
2023/07/05 04:08:03;;;;;;;;;1.00;1.00;;;;;14.66;69.39;100667.03;5093611;27;46023;-80
2023/07/05 04:10:28;;;;;;;;;1.33;0.33;;;;;14.69;69.13;100666.81;5097836;27;46008;-80
2023/07/05 04:12:54;;;;;;;;;3.67;2.00;;;;;14.72;69.49;100677.31;5096517;27;45492;-80
2023/07/05 04:15:19;;;;;;;;;3.00;3.00;;;;;14.71;69.37;100662.22;5096558;27;45435;-79
2023/07/05 04:17:45;;;;;;;;;1.67;1.67;;;;;14.69;69.19;100655.25;5096265;27;45451;-82
2023/07/05 04:20:11;;;;;;;;;2.00;2.00;;;;;14.77;69.30;100676.97;5097435;27;45799;-81
2023/07/05 04:22:39;;;;;;;;;1.33;1.33;;;;;14.74;69.38;100670.03;5097225;27;45249;-80
2023/07/05 04:25:05;;;;;;;;;6.00;3.67;;;;;14.78;69.44;100684.03;5097642;27;45230;-79
2023/07/05 04:27:30;;;;;;;;;5.00;4.00;;;;;14.62;69.42;100662.88;5098043;27;45325;-81
2023/07/05 04:29:55;;;;;;;;;2.67;2.00;;;;;14.83;69.56;100694.41;5097096;27;49666;-81
2023/07/05 04:32:21;;;;;;;;;4.00;2.00;;;;;14.84;69.53;100696.97;5080528;27;45351;-79
2023/07/05 04:34:46;;;;;;;;;3.33;2.00;;;;;14.80;69.94;100689.28;5092226;27;45411;-80
2023/07/05 04:37:11;;;;;;;;;1.67;1.67;;;;;14.78;69.87;100684.03;5097435;27;45365;-79
2023/07/05 04:39:37;;;;;;;;;4.00;2.00;;;;;14.85;69.87;100692.50;5096844;27;45501;-81
2023/07/05 04:42:03;;;;;;;;;6.33;4.00;;;;;14.48;69.99;100636.25;5097403;27;45335;-80
2023/07/05 04:44:28;;;;;;;;;3.00;3.00;;;;;14.72;70.12;100685.34;5097455;27;45353;-80
2023/07/05 04:46:53;;;;;;;;;4.00;3.00;;;;;14.84;70.02;100698.78;5096706;27;49414;-79
2023/07/05 04:49:19;;;;;;;;;4.33;4.33;;;;;14.78;70.18;100683.19;5080621;27;46155;-81
2023/07/05 04:51:44;;;;;;;;;2.67;2.67;;;;;14.96;70.64;100703.25;5076577;27;45439;-80
2023/07/05 04:54:09;;;;;;;;;6.67;4.33;;;;;14.94;70.10;100679.28;5076486;27;45404;-80
2023/07/05 04:56:36;;;;;;;;;4.00;4.00;;;;;15.11;69.62;100715.56;5076739;27;45360;-79
2023/07/05 04:59:01;;;;;;;;;4.00;4.00;;;;;15.13;69.72;100707.41;5076742;27;45751;-80
2023/07/05 05:01:27;;;;;;;;;4.00;4.00;;;;;15.14;69.29;100706.44;5074985;27;45190;-80
2023/07/05 05:03:52;;;;;;;;;5.00;4.67;;;;;15.12;69.38;100693.16;5076470;27;45360;-80
2023/07/05 05:06:17;;;;;;;;;4.67;3.00;;;;;15.24;69.12;100704.81;5091223;27;45558;-79
2023/07/05 05:08:43;;;;;;;;;6.00;4.00;;;;;15.39;69.16;100713.53;5096825;27;46332;-81
2023/07/05 05:11:08;;;;;;;;;6.00;4.00;;;;;15.53;68.66;100716.03;5096560;27;45408;-79
2023/07/05 05:13:35;;;;;;;;;4.33;3.00;;;;;15.50;68.54;100713.59;5098529;27;45309;-81
2023/07/05 05:16:01;;;;;;;;;5.00;4.00;;;;;15.50;68.48;100716.28;5099824;27;45385;-81
2023/07/05 05:18:30;;;;;;;;;7.67;5.00;;;;;15.47;69.10;100711.97;5098907;27;46022;-82
2023/07/05 05:20:55;;;;;;;;;5.00;3.67;;;;;15.45;69.03;100702.34;5099589;27;45368;-81
2023/07/05 05:23:21;;;;;;;;;6.00;4.00;;;;;15.62;68.82;100723.41;5097569;27;45390;-81
2023/07/05 05:25:47;;;;;;;;;5.67;4.00;;;;;15.72;68.38;100727.13;5095779;27;45376;-78
2023/07/05 05:28:13;;;;;;;;;5.00;5.00;;;;;15.82;68.30;100724.59;5105492;27;45837;-80
2023/07/05 05:30:43;;;;;;;;;6.33;4.00;;;;;15.86;68.14;100712.66;5099847;27;45481;-80
2023/07/05 05:33:09;;;;;;;;;4.00;4.00;;;;;15.98;67.88;100729.66;5099987;27;45431;-82
2023/07/05 05:35:35;;;;;;;;;4.67;3.67;;;;;16.09;67.37;100716.28;5097932;27;45507;-79
2023/07/05 05:38:02;;;;;;;;;5.00;4.00;;;;;16.41;66.46;100714.63;5098264;27;46130;-81
2023/07/05 05:40:28;;;;;;;;;4.67;4.67;;;;;16.29;66.38;100710.22;5093483;27;45441;-82
2023/07/05 05:42:53;;;;;;;;;3.00;3.00;;;;;16.31;66.49;100728.88;5098918;27;45376;-82
2023/07/05 05:45:18;;;;;;;;;5.00;5.00;;;;;16.30;66.77;100717.31;5100173;27;45663;-81
2023/07/05 05:47:44;;;;;;;;;5.33;4.00;;;;;16.34;66.26;100729.50;5096819;27;46106;-80
2023/07/05 05:50:10;;;;;;;;;6.00;4.00;;;;;16.30;67.01;100727.19;5099643;27;45309;-81
2023/07/05 05:52:35;;;;;;;;;5.00;4.00;;;;;16.16;66.36;100696.06;5097611;27;45280;-82
2023/07/05 05:55:02;;;;;;;;;5.67;3.00;;;;;16.44;66.09;100730.50;5098278;27;45576;-80
2023/07/05 05:57:28;;;;;;;;;6.00;4.00;;;;;16.64;65.79;100731.59;5083532;27;45460;-80
2023/07/05 05:59:53;;;;;;;;;5.00;4.00;;;;;16.59;64.76;100695.34;5099368;27;45345;-80
2023/07/05 06:02:19;;;;;;;;;6.00;4.33;;;;;16.77;64.80;100748.47;5097310;27;45413;-80
2023/07/05 06:04:44;;;;;;;;;3.00;3.00;;;;;16.64;65.36;100733.44;5098208;27;45494;-80
2023/07/05 06:07:09;;;;;;;;;4.00;4.00;;;;;16.74;64.76;100729.06;5098984;27;46082;-81
2023/07/05 06:09:42;;;;;;;;;3.00;3.00;;;;;16.78;64.50;100735.91;5098622;27;45421;-84
2023/07/05 06:12:08;;;;;;;;;4.33;3.00;;;;;16.72;64.56;100714.91;5099529;27;45484;-84
2023/07/05 06:14:33;;;;;;;;;9.67;6.00;;;;;17.09;64.41;100753.13;5096503;27;45475;-81
2023/07/05 06:16:58;;;;;;;;;6.33;3.33;;;;;17.22;63.92;100759.22;5096997;27;47547;-81
2023/07/05 06:19:24;;;;;;;;;4.00;4.00;;;;;17.01;64.15;100740.28;5097900;27;45438;-79
2023/07/05 06:21:51;;;;;;;;;4.67;4.67;;;;;16.95;63.90;100727.38;5099460;27;45361;-80
2023/07/05 06:24:17;;;;;;;;;4.00;4.00;;;;;17.09;63.72;100731.63;5098333;27;45363;-78
2023/07/05 06:26:42;;;;;;;;;5.00;5.00;;;;;17.20;63.44;100754.94;5097063;27;45379;-78
2023/07/05 06:29:07;;;;;;;;;3.67;3.67;;;;;17.17;63.60;100755.16;5089321;27;45269;-78
2023/07/05 06:31:33;;;;;;;;;4.67;2.67;;;;;17.25;63.32;100767.03;5095146;27;45680;-77
2023/07/05 06:34:01;;;;;;;;;3.67;3.67;;;;;17.17;63.27;100749.78;5099626;27;45933;-78
2023/07/05 06:36:27;;;;;;;;;4.00;4.00;;;;;17.20;63.18;100742.38;5098283;27;45483;-77
2023/07/05 06:38:52;;;;;;;;;5.00;3.67;;;;;17.43;62.65;100758.44;5097616;27;45495;-79
2023/07/05 06:41:18;;;;;;;;;5.00;3.00;;;;;17.37;62.96;100766.03;5097237;27;50795;-79
2023/07/05 06:43:44;;;;;;;;;5.00;5.00;;;;;17.37;63.01;100752.59;5096649;27;45594;-79
2023/07/05 06:46:09;;;;;;;;;6.00;4.00;;;;;17.98;61.49;100765.50;5096282;27;45327;-77
2023/07/05 06:48:34;;;;;;;;;2.67;2.67;;;;;18.30;59.76;100741.22;5093174;27;45515;-80
2023/07/05 06:51:00;;;;;;;;;2.00;2.00;;;;;18.24;59.70;100755.22;5097918;27;45449;-78
2023/07/05 06:53:25;;;;;;;;;4.00;4.00;;;;;18.06;60.14;100760.31;5087593;27;45205;-78
2023/07/05 06:55:51;;;;;;;;;6.33;4.00;;;;;18.27;60.30;100776.50;5078113;27;45508;-79
2023/07/05 06:58:19;;;;;;;;;6.00;6.00;;;;;18.10;60.30;100772.53;5097260;27;45204;-78
2023/07/05 07:00:49;;;;;;;;;6.00;3.33;;;;;18.07;60.40;100775.47;5097196;27;45425;-79
2023/07/05 07:03:15;;;;;;;;;4.00;4.00;;;;;18.22;60.32;100801.09;5097085;27;45670;-79
2023/07/05 07:05:40;;;;;;;;;7.33;3.67;;;;;18.15;60.29;100801.75;5098362;27;46138;-80
2023/07/05 07:08:06;;;;;;;;;5.67;4.00;;;;;17.89;60.29;100771.66;5096870;27;45405;-79
2023/07/05 07:10:35;;;;;;;;;6.00;4.67;;;;;17.87;60.76;100787.94;5098653;27;45398;-79
2023/07/05 07:13:02;;;;;;;;;6.00;4.00;;;;;17.95;61.10;100806.09;5098919;27;45276;-77
2023/07/05 07:15:27;;;;;;;;;8.00;4.00;;;;;17.95;61.00;100803.41;5097091;27;46184;-79
2023/07/05 07:17:53;;;;;;;;;6.33;5.00;;;;;17.80;61.22;100775.09;5095374;27;45463;-78
2023/07/05 07:20:19;;;;;;;;;5.33;4.00;;;;;18.02;60.86;100825.28;5096463;27;45376;-80
2023/07/05 07:22:44;;;;;;;;;3.00;3.00;;;;;18.01;60.59;100802.06;5098716;27;45550;-83
2023/07/05 07:25:10;;;;;;;;;7.00;4.67;;;;;18.11;60.41;100828.09;5097691;27;45497;-78
2023/07/05 07:27:36;;;;;;;;;3.33;3.33;;;;;18.15;60.53;100812.53;5095774;27;45724;-78
2023/07/05 07:30:02;;;;;;;;;9.00;4.33;;;;;18.03;60.52;100800.09;5078903;27;46078;-77
2023/07/05 07:32:27;;;;;;;;;5.00;5.00;;;;;18.26;60.19;100823.25;5067858;27;45734;-79
2023/07/05 07:34:54;;;;;;;;;4.67;4.33;;;;;18.24;59.94;100822.53;5090453;27;45530;-77
2023/07/05 07:37:20;;;;;;;;;6.00;6.00;;;;;18.29;60.27;100814.91;5095504;27;45416;-79
2023/07/05 07:39:45;;;;;;;;;3.33;3.33;;;;;18.41;59.67;100830.00;5093449;27;45507;-79
2023/07/05 07:42:11;;;;;;;;;3.33;3.33;;;;;18.51;59.10;100827.41;5094814;27;45518;-78
2023/07/05 07:44:37;;;;;;;;;3.00;3.00;;;;;18.58;59.11;100842.88;5095539;27;46850;-78
2023/07/05 07:47:03;;;;;;;;;6.00;4.00;;;;;18.66;58.63;100849.50;5092340;27;46043;-78
2023/07/05 07:49:28;;;;;;;;;9.67;5.33;;;;;18.68;59.26;100842.13;5093750;27;45433;-77
2023/07/05 07:51:55;;;;;;;;;3.33;2.67;;;;;18.68;58.92;100843.00;5093013;27;45646;-79
2023/07/05 07:54:25;;;;;;;;;5.00;4.67;;;;;18.78;58.67;100843.91;5096898;27;45423;-78
2023/07/05 07:56:55;;;;;;;;;4.33;4.33;;;;;18.88;58.82;100853.88;5094347;27;45318;-76
2023/07/05 07:59:23;;;;;;;;;4.00;4.00;;;;;18.90;58.46;100849.22;5095649;27;45333;-78
2023/07/05 08:01:49;;;;;;;;;6.00;4.00;;;;;18.96;58.31;100846.84;5094201;27;45524;-79
2023/07/05 08:04:16;;;;;;;;;2.33;2.00;;;;;18.99;57.76;100851.94;5095302;27;45480;-78
2023/07/05 08:06:51;;;;;;;;;5.00;5.00;;;;;18.99;57.61;100857.34;5097762;27;45434;-79
2023/07/05 08:09:27;;;;;;;;;5.33;4.00;;;;;19.17;57.80;100843.25;5089904;27;45552;-79
2023/07/05 08:11:57;;;;;;;;;4.67;4.00;;;;;19.27;57.20;100839.63;5094850;27;46505;-80
2023/07/05 08:14:22;;;;;;;;;3.67;3.67;;;;;19.32;56.55;100821.19;5095844;27;45575;-77
2023/07/05 08:16:48;;;;;;;;;5.67;5.67;;;;;19.31;55.88;100814.09;5094526;27;45880;-79
2023/07/05 08:19:14;;;;;;;;;4.67;3.00;;;;;19.62;55.42;100828.38;5109155;27;45416;-78
2023/07/05 08:21:43;;;;;;;;;3.67;3.67;;;;;19.87;55.36;100842.38;5097095;27;45211;-77
2023/07/05 08:24:10;;;;;;;;;3.00;3.00;;;;;19.89;55.14;100841.22;5100652;27;45511;-78
2023/07/05 08:26:35;;;;;;;;;4.33;4.00;;;;;19.92;55.26;100843.66;5097031;27;45343;-76
2023/07/05 08:29:03;;;;;;;;;5.00;4.00;;;;;19.91;55.20;100830.28;5095957;27;45393;-78
2023/07/05 08:31:29;;;;;;;;;2.33;2.33;;;;;19.87;54.60;100842.38;5095859;27;45357;-78
2023/07/05 08:33:55;;;;;;;;;4.33;3.33;;;;;19.71;54.97;100853.69;5095715;27;45381;-77
2023/07/05 08:36:33;;;;;;;;;4.00;4.00;;;;;19.76;54.87;100858.66;5096841;27;45280;-77
2023/07/05 08:39:03;;;;;;;;;5.00;3.33;;;;;19.97;54.50;100849.50;5093450;27;45272;-77
2023/07/05 08:41:41;;;;;;;;;3.67;3.67;;;;;20.31;53.09;100857.16;5096058;27;45554;-78
2023/07/05 08:44:30;;;;;;;;;3.00;3.00;;;;;20.30;51.83;100855.47;5093699;27;45507;-76
2023/07/05 08:47:02;;;;;;;;;5.00;5.00;;;;;20.28;53.05;100846.66;5093034;27;45512;-77
2023/07/05 08:49:57;;;;;;;;;6.00;4.33;;;;;20.43;52.76;100856.06;5076639;27;45284;-77
2023/07/05 08:52:33;;;;;;;;;4.00;3.33;;;;;20.59;53.06;100880.66;5095770;27;45488;-78
2023/07/05 08:55:03;;;;;;;;;5.00;4.33;;;;;20.60;52.37;100884.22;5095583;27;46720;-79
2023/07/05 08:57:38;;;;;;;;;6.00;5.00;;;;;20.54;52.11;100864.03;5096854;27;45333;-80
2023/07/05 09:00:11;;;;;;;;;5.33;5.00;;;;;20.57;52.76;100879.97;5094932;27;45377;-80
2023/07/05 09:02:37;;;;;;;;;9.00;4.00;;;;;20.44;52.30;100868.56;5090630;27;45576;-79
2023/07/05 09:05:04;;;;;;;;;5.00;5.00;;;;;20.54;52.33;100882.06;5092236;27;47376;-81
2023/07/05 09:07:44;;;;;;;;;4.33;4.33;;;;;20.52;52.18;100893.03;5096262;27;45362;-79
2023/07/05 09:10:18;;;;;;;;;4.33;4.00;;;;;20.61;52.08;100884.06;5096861;27;45317;-82
2023/07/05 09:13:17;;;;;;;;;6.00;3.00;;;;;20.94;51.70;100892.69;5093027;27;45509;-80
2023/07/05 09:16:41;;;;;;;;;11.00;5.00;;;;;21.26;51.46;100889.66;5093554;27;47921;-81
2023/07/05 09:19:12;;;;;;;;;8.00;5.00;;;;;21.49;50.68;100873.91;5053906;28;45375;-80
2023/07/05 09:21:42;;;;;;;;;5.33;5.33;;;;;21.46;50.82;100883.16;5088771;27;45522;-81
2023/07/05 09:24:23;;;;;;;;;6.33;4.00;;;;;21.40;50.46;100880.22;5091321;27;46196;-79
2023/07/05 09:26:56;;;;;;;;;6.00;4.33;;;;;21.39;50.33;100868.53;5096412;27;45499;-80
2023/07/05 09:29:29;;;;;;;;;3.67;3.67;;;;;21.69;49.65;100877.38;5090529;27;45526;-79
2023/07/05 09:31:55;;;;;;;;;5.33;4.00;;;;;21.71;50.18;100873.50;5102922;27;45722;-81
2023/07/05 09:34:29;;;;;;;;;5.33;5.00;;;;;21.48;50.34;100867.66;5106882;27;45353;-78
2023/07/05 09:36:54;;;;;;;;;6.33;4.33;;;;;21.35;50.75;100875.22;5106894;27;45399;-80
2023/07/05 09:39:35;;;;;;;;;7.67;5.67;;;;;21.08;51.04;100880.56;5092766;27;45317;-79
2023/07/05 09:42:03;;;;;;;;;6.00;4.33;;;;;20.82;51.50;100883.88;5101826;27;45297;-78
2023/07/05 09:44:30;;;;;;;;;4.00;4.00;;;;;20.69;51.33;100855.47;5100329;27;45522;-81
2023/07/05 09:46:56;;;;;;;;;3.33;3.33;;;;;20.81;51.48;100884.03;5095997;27;47818;-79
2023/07/05 09:49:22;;;;;;;;;3.33;3.33;;;;;20.67;51.74;100885.34;5100289;27;45638;-79
2023/07/05 09:51:47;;;;;;;;;5.00;5.00;;;;;20.54;51.76;100891.03;5100913;27;45494;-78
2023/07/05 09:54:31;;;;;;;;;6.00;4.33;;;;;20.58;52.13;100892.47;5110213;27;45428;-79
2023/07/05 09:57:04;;;;;;;;;8.33;4.67;;;;;20.86;51.57;100896.13;5104071;27;46178;-80
2023/07/05 09:59:32;;;;;;;;;4.00;4.00;;;;;21.21;50.58;100881.94;5099480;27;45467;-83
2023/07/05 10:02:10;;;;;;;;;8.00;5.67;;;;;21.59;49.46;100890.94;5093341;27;45503;-78
2023/07/05 10:04:44;;;;;;;;;8.00;5.00;;;;;21.67;50.00;100896.47;5099060;27;45670;-76
2023/07/05 10:07:22;;;;;;;;;4.75;3.50;;;;;21.77;48.14;100901.84;5113783;27;46102;-79
2023/07/05 10:09:56;;;;;;;;;3.50;3.50;;;;;21.95;47.93;100896.44;5101424;27;45488;-80
2023/07/05 10:12:26;;;;;;;;;3.00;2.50;;;;;22.14;47.13;100888.25;5101641;27;45410;-79
2023/07/05 10:14:55;;;;;;;;;2.75;2.75;;;;;22.05;46.37;100883.69;5104109;27;45463;-79
2023/07/05 10:17:21;;;;;;;;;4.00;4.00;;;;;21.87;47.03;100897.19;5114811;27;47396;-80
2023/07/05 10:19:51;;;;;;;;;4.00;2.33;;;;;21.52;47.47;100889.84;5103264;27;45401;-79
2023/07/05 10:22:31;;;;;;;;;2.33;1.67;;;;;21.45;48.42;100899.53;5110936;27;45368;-78
2023/07/05 10:25:00;;;;;;;;;5.00;3.33;;;;;21.38;48.42;100884.94;5113295;27;45461;-79
2023/07/05 10:27:31;;;;;;;;;5.33;3.67;;;;;21.58;48.25;100902.75;5101652;27;45435;-77
2023/07/05 10:30:13;;;;;;;;;5.00;3.67;;;;;21.72;47.44;100894.16;5109212;27;45288;-79
2023/07/05 10:32:41;;;;;;;;;7.67;5.00;;;;;21.96;47.42;100876.50;5107395;27;45471;-78
2023/07/05 10:35:27;;;;;;;;;9.50;5.25;;;;;22.30;45.95;100888.41;5109443;27;45286;-81
2023/07/05 10:37:54;;;;;;;;;3.67;2.33;;;;;22.62;45.38;100876.97;5088661;27;45378;-76
2023/07/05 10:40:21;;;;;;;;;4.00;4.00;;;;;22.93;45.84;100893.72;5109758;27;45427;-77
2023/07/05 10:42:54;;;;;;;;;3.00;3.00;;;;;22.99;44.58;100872.38;5110470;27;45475;-79
2023/07/05 10:45:22;;;;;;;;;5.25;4.00;;;;;22.95;44.46;100885.41;5098017;27;45447;-79
2023/07/05 10:47:52;;;;;;;;;3.00;3.00;;;;;22.76;44.26;100872.00;5090515;27;46135;-81
2023/07/05 10:50:26;;;;;;;;;2.75;2.75;;;;;22.70;44.85;100850.97;5100665;27;46030;-79
2023/07/05 10:53:10;;;;;;;;;2.50;2.50;;;;;22.89;44.42;100886.03;5099509;27;45411;-81
2023/07/05 10:55:51;;;;;;;;;3.00;2.00;;;;;23.08;43.76;100899.41;5101966;27;45680;-82
2023/07/05 10:58:18;;;;;;;;;4.00;3.00;;;;;23.25;43.69;100895.78;5101057;27;46258;-84
2023/07/05 11:01:19;;;;;;;;;5.00;4.00;;;;;23.21;44.19;100877.28;5112044;27;45429;-81
2023/07/05 11:03:55;;;;;;;;;9.00;5.25;;;;;23.19;43.70;100901.00;5090501;27;45404;-82
2023/07/05 11:06:21;;;;;;;;;5.25;5.00;;;;;23.11;43.84;100888.22;5102857;27;45543;-82
2023/07/05 11:08:47;;;;;;;;;3.75;3.75;;;;;23.07;44.62;100892.28;5104247;27;46528;-80
2023/07/05 11:11:42;;;;;;;;;4.00;3.75;;;;;23.08;44.42;100888.56;5114428;27;45355;-84
2023/07/05 11:14:12;;;;;;;;;4.50;1.75;;;;;23.42;43.23;100880.41;5085380;27;45480;-85
2023/07/05 11:16:42;;;;;;;;;4.50;4.00;;;;;23.72;42.56;100886.38;5093171;27;45625;-79
2023/07/05 11:19:14;;;;;;;;;5.00;4.25;;;;;24.05;42.36;100882.72;5125624;27;47962;-78
2023/07/05 11:21:44;;;;;;;;;3.00;2.75;;;;;24.19;41.09;100878.50;5088205;27;45486;-80
2023/07/05 11:24:31;;;;;;;;;5.50;4.50;;;;;24.33;41.84;100885.19;5103570;27;45524;-80
2023/07/05 11:26:57;;;;;;;;;7.50;4.50;;;;;24.42;40.79;100878.75;5094600;27;45467;-79
2023/07/05 11:29:31;;;;;;;;;5.25;4.00;;;;;24.69;40.27;100874.84;5112594;27;45804;-79
2023/07/05 11:31:58;;;;;;;;;4.00;3.75;;;;;24.84;39.96;100883.16;5088340;27;45417;-80
2023/07/05 11:34:24;;;;;;;;;3.50;3.00;;;;;25.07;39.36;100877.88;5107641;27;45371;-79